AirNav   Pilot Hours Calculator
 
 1522 users online  

D98 Romeo State Airport
Romeo, Michigan, USA

GOING TO ROMEO?


FAA INFORMATION EFFECTIVE 26 JANUARY 2023

Location

FAA Identifier: D98
Lat/Long: 42-47-46.8030N 082-58-27.3360W
42-47.780050N 082-58.455600W
42.7963342,-82.9742600
(estimated)
Elevation: 738.5 ft. / 225.1 m (surveyed)
Variation: 06W (1985)
From city: 2 miles E of ROMEO, MI
Time zone: UTC -5 (UTC -4 during Daylight Saving Time)
Zip code: 48095

Airport Operations

Airport use: Open to the public
Activation date: 02/1947
Control tower: no
ARTCC: CLEVELAND CENTER
FSS: LANSING FLIGHT SERVICE STATION
NOTAMs facility: LAN (NOTAM-D service available)
Attendance: MON-FRI 0800-1600
Wind indicator: lighted
Segmented circle: no
Lights: ACTVT REIL RWY 18 & 36; PAPI RWY 18 & 36; MIRL RWY 18/36 - CTAF.
Beacon: white-green (lighted land airport)
Operates sunset to sunrise.

Airport Communications

CTAF/UNICOM: 122.8
SELFRIDGE APPROACH: 119.6
SELFRIDGE DEPARTURE: 119.6
WX AWOS-3 at VLL (18 nm SW): 119.475 (248-288-4649)
  • APCH/DEP SVC PRVDD BY CLEVELAND ARTCC (ZOB) ON FREQS 126.525/285.525 (ALGONAC RCAG) WHEN SELFRIDGE APCH CTL CLSD.

Nearby radio navigation aids

VOR radial/distance  VOR name  Freq  Var
FNTr113/35.5FLINT VORTAC116.9006W
SVMr053/35.9SALEM VORTAC114.3003W
DXOr032/39.1DETROIT VOR/DME113.4006W

Airport Services

Fuel available: 100LL JET-A
100LL:JET A & 100LL AVBL H24 SELF SVC.
Parking: hangars and tiedowns
Airframe service: NONE
Powerplant service: NONE
Bottled oxygen: NONE
Bulk oxygen: NONE

Runway Information

Runway 18/36

Dimensions: 4000 x 75 ft. / 1219 x 23 m
Surface: asphalt, in fair condition
Runway edge lights: medium intensity
RUNWAY 18  RUNWAY 36
Latitude: 42-48.109163N42-47.451198N
Longitude: 082-58.473767W082-58.436265W
Elevation: 737.7 ft.728.3 ft.
Traffic pattern: leftleft
Runway heading: 184 magnetic, 178 true004 magnetic, 358 true
Displaced threshold: 470 ft.no
Markings: nonprecision, in good conditionnonprecision, in good condition
Visual slope indicator: 4-light PAPI on left (3.00 degrees glide path)4-light PAPI on left (3.00 degrees glide path)
Runway end identifier lights: yesyes
Touchdown point: yes, no lightsyes, no lights
Obstructions: 44 ft. pole, 797 ft. from runway, 194 ft. right of centerline, 13:1 slope to clear
APCH RATIO 20:1 TO DTHR OVR 67 FT TREE, 1400 FT DIST, 480 FT R.
20 ft. tree, 343 ft. from runway, 208 ft. right of centerline, 7:1 slope to clear

Airport Ownership and Management from official FAA records

Ownership: Publicly-owned
Owner: STATE OF MICHIGAN
2700 PORT LANSING RD
LANSING, MI 48906-2160
Phone 517-335-9841
Manager: DONALD SCHORSCH
15340 32 MILE RD
RAY, MI 48096-1017
Phone 586-336-9116
CELL 248-730-0561.

Airport Operational Statistics

Aircraft based on the field: 30
Single engine airplanes: 30
    
Aircraft operations: avg 41/day *
50% transient general aviation
50% local general aviation
* for 12-month period ending 31 December 2021

Additional Remarks

DEER & BIRDS INVOF ARPT.
RWY SFC CONDS UNMON DURG UNATNDD HRS EXC WINTER OPS.
FOR CD CTC SELFRIDGE APCH AT 586-239-5706, WHEN APCH CLSD CTC DETROIT APCH AT 734-955-1404.
RWY 18 +44 FT PLINE, 750-950 FT NORTH OF THR.

Instrument Procedures

NOTE: All procedures below are presented as PDF files. If you need a reader for these files, you should download the free Adobe Reader.

NOT FOR NAVIGATION. Please procure official charts for flight.
FAA instrument procedures published for use from 26 January 2023 at 0901Z to 23 February 2023 at 0900z.

 
IAPs - Instrument Approach Procedures
RNAV (GPS) RWY 18   download
RNAV (GPS) RWY 36   download
NOTE: Special Take-Off Minimums/Departure Procedures apply   download (122KB)

Other nearby airports with instrument procedures:

57D - Ray Community Airport (5 nm SE)
KMTC - Selfridge Air National Guard Base (13 nm SE)
KVLL - Oakland/Troy Airport (18 nm SW)
KPHN - St Clair County International Airport (21 nm E)
D95 - Dupont/Lapeer Airport (21 nm NW)
 
Loc | Ops | Rwys | IFR | FBO | Links
Com | Nav | Svcs | Stats | Notes
Area around D98 (Romeo State Airport)
 
Road maps at: MapQuest Bing Google
 
Aerial photo
WARNING: Photo may not be current or correct
Aerial photo of D98 (Romeo State Airport)
Do you have a better or more recent aerial photo of Romeo State Airport that you would like to share? If so, please send us your photo.

 
Sectional chart

 
Airport distance calculator
Flying to Romeo State Airport? Find the distance to fly.

From to D98

Sunrise and sunset
Times for 02-Feb-2023
 Local
(UTC-5)
 Zulu
(UTC)
Morning civil twilight07:1712:17
Sunrise07:4612:46
Sunset17:4522:45
Evening civil twilight18:1523:15

Current date and time
Zulu (UTC)  02-Feb-2023 21:27:11
Local (UTC-5)  02-Feb-2023 16:27:11
 
METAR
KMTC 
13nm SE 
022056Z 22010KT 10SM SCT130 01/M08 A2987 RMK AO2A SLP128 T00131080 55009 $
KVLL 
18nm SW 
022115Z AUTO 25016G22KT 10SM BKN080 02/M09 A2992 RMK AO2 T00211089
KD95 
21nm NW 
022115Z AUTO 24012G19KT 10SM OVC032 00/M07 A2986 RMK AO2 T00001066
KPTK 
21nm W 
022053Z 27013G27KT 10SM BKN033 BKN180 00/M08 A2988 RMK SLPNO
KPHN 
21nm E 
022115Z AUTO 24008G16KT 10SM SCT050 OVC070 02/M08 A2987 RMK AO2
KDET 
24nm S 
022053Z 24014G29KT 10SM CLR 02/M08 A2991 RMK AO2 PK WND 23029/2019 SLP135 T00171083 55010
TAF
KMTC 
13nm SE 
022000Z 0220/0402 25015G25KT 9999 FEW100 510033 QNH2985INS BECMG 0222/0223 26012G18KT 9000 -SN BKN020 OVC030 620204 QNH2985INS BECMG 0302/0303 29009KT 9999 NSW SCT025 OVC050 620502 QNH2985INS BECMG 0315/0316 31012G18KT 9999 FEW025 QNH2990INS BECMG 0322/0323 30009KT 9999 SCT025 QNH3040INS TX01/0221Z TNM17/0313Z LAST NO AMDS AFT 0304 NEXT 0312
NOTAMs
Click for the latest NOTAMs
NOTAMs are issued by the DoD/FAA and will open in a separate window not controlled by AirNav.

 

 
 

FBO, Fuel Providers, and Aircraft Ground Support

  
 Business Name 
 
 Contact 
 
 Services / Description 
 
Fuel Prices
 
Comments
  
Romeo Airport Management 586-336-9116
[email]
Airport management, Aviation fuel, Hangars, Hangar leasing / sales, Passenger terminal and lounge, Flight training

More info about Romeo Airport Management
Avfuel
100LL Jet A
SS $6.74 $6.07 
 Updated 05-Jan-2023
 
   write
SS=Self service
Update Fuel Prices
 

Would you like to see your business listed on this page?

 If your business provides an interesting product or service to pilots, flight crews, aircraft, or users of the Romeo State Airport, you should consider listing it here.  To start the listing process, click on the button below
 
Add a business
 

Other Pages about Romeo State Airport

Page from the Michigan Airport Directory (PDF)
 
Update a link
 
Copyright © AirNav, LLC. All rights reserved. Privacy Policy  Contact